Estación Meteorológica Peña el Pijo (Robertgarden) [ 01/30/23 15:07:15 CET ]

Fecha Hora Presion(HPa) Temp (°C) Humedad % Rocio (°C) Viento ( m/s) Direccion Lluvia 1Hora(mm) Lluvia 24H(mm) LLuvia Total(mm)
2010-Mar-22 01:01:14 1013.100 6.3 93 5.2         104.63
2010-Mar-22 02:03:17 1012.800 6.4 94 5.5         104.63
2010-Mar-22 03:01:12 1012.300 6.4 94 5.5         104.63
2010-Mar-22 04:01:21 1012.000 6.4 94 5.5         104.63
2010-Mar-22 05:01:13 1011.800 5.3 93 4.2         104.63
2010-Mar-22 06:01:17 1012.100 4.3 93 3.2         104.63
2010-Mar-22 07:01:14 1012.200 3.9 94 3.0         104.63
2010-Mar-22 08:01:18 1012.900 3.4 94 2.5         104.63
2010-Mar-22 09:01:13 1012.800 6.1 95 5.3         104.63
2010-Mar-22 10:01:13 1013.100 12.4 77 8.5         104.63
2010-Mar-22 11:01:16 1013.600 15.0 63 8.0         104.63
2010-Mar-22 12:01:14 1013.700 15.6 59 7.6         104.63
2010-Mar-22 13:01:18 1013.400 15.4 52 5.6         104.63
2010-Mar-22 14:01:16 1013.300 17.9 50 7.3         104.63
2010-Mar-22 15:01:19 1013.100 17.9 43 5.1 1.5 ESE     104.63
2010-Mar-22 16:01:14 1012.500 17.9 43 5.1 1.1 NE     104.63
2010-Mar-22 17:01:13 1012.100 18.9 38 4.2         104.63
2010-Mar-22 18:01:13 1012.400 16.8 42 3.8         104.63
2010-Mar-22 19:01:17 1012.800 13.8 51 3.9         104.63
2010-Mar-22 20:01:16 1013.200 9.9 66 3.8         104.63
2010-Mar-22 21:01:16 1013.800 7.6 76 3.6         104.63
2010-Mar-22 22:01:14 1014.300 6.8 79 3.4         104.63
2010-Mar-22 23:01:13 1014.100 5.5 83 2.8         104.63

Temperatura Máxima:18°    Temperatura Mínima:
Presión Máxima:1014.300 Hpa    Presión Mínima:1011.800 Hpa


Volver